createdAt,value
2022-12-23T00:04:08.668Z,23.30
2022-12-23T00:09:11.776Z,22.20
2022-12-23T00:14:33.554Z,25.10
2022-12-23T00:19:36.786Z,24.80
2022-12-23T00:24:40.033Z,26.00
2022-12-23T00:29:43.859Z,25.60
2022-12-23T00:34:46.970Z,24.80
2022-12-23T00:40:09.137Z,27.50
2022-12-23T00:45:18.173Z,28.00
2022-12-23T00:50:21.243Z,27.70
2022-12-23T00:55:24.963Z,29.30
2022-12-23T01:00:57.395Z,32.70
2022-12-23T01:06:02.136Z,35.30
2022-12-23T01:11:07.474Z,30.10
2022-12-23T01:16:16.870Z,31.10
2022-12-23T01:21:21.115Z,30.70
2022-12-23T01:26:24.398Z,31.90
2022-12-23T01:31:28.363Z,31.60
2022-12-23T01:36:31.730Z,29.70
2022-12-23T01:41:54.092Z,32.80
2022-12-23T01:46:57.369Z,30.60
2022-12-23T01:52:00.696Z,33.60
2022-12-23T01:57:04.178Z,32.60
2022-12-23T02:02:26.685Z,34.00
2022-12-23T02:07:49.425Z,30.00
2022-12-23T02:13:15.102Z,32.80
2022-12-23T02:18:40.464Z,32.50
2022-12-23T02:24:03.976Z,33.80
2022-12-23T02:29:19.282Z,27.90
2022-12-23T02:34:34.752Z,31.10
2022-12-23T02:39:51.840Z,30.00
2022-12-23T02:45:12.643Z,31.80
2022-12-23T02:50:21.748Z,26.90
2022-12-23T02:55:33.790Z,27.90
2022-12-23T03:00:40.469Z,26.50
2022-12-23T03:05:46.741Z,24.80
2022-12-23T03:10:52.915Z,29.10
2022-12-23T03:16:13.574Z,27.10
2022-12-23T03:21:44.686Z,31.00
2022-12-23T03:26:50.984Z,28.80
2022-12-23T03:31:58.554Z,27.70
2022-12-23T03:37:07.270Z,24.30
2022-12-23T03:42:39.084Z,29.70
2022-12-23T03:47:57.823Z,28.70
2022-12-23T03:53:16.955Z,28.70
2022-12-23T03:58:52.361Z,31.40
2022-12-23T04:04:23.626Z,28.70
2022-12-23T04:09:28.866Z,28.20
2022-12-23T04:14:35.451Z,29.30
2022-12-23T04:19:38.623Z,27.50
2022-12-23T04:24:42.216Z,27.90
2022-12-23T04:29:45.440Z,25.70
2022-12-23T04:34:48.530Z,25.00
2022-12-23T04:39:51.687Z,27.70
2022-12-23T04:44:54.862Z,26.80
2022-12-23T04:49:58.013Z,26.30
2022-12-23T04:55:01.207Z,26.80
2022-12-23T05:00:05.478Z,23.80
2022-12-23T05:05:08.766Z,24.70
2022-12-23T05:10:12.019Z,22.60
2022-12-23T05:15:15.167Z,20.50
2022-12-23T05:20:18.268Z,24.50
2022-12-23T05:25:21.408Z,25.80
2022-12-23T05:30:24.443Z,25.00
2022-12-23T05:35:28.267Z,24.50
2022-12-23T05:40:31.779Z,21.30
2022-12-23T05:45:36.943Z,25.40
2022-12-23T05:50:40.995Z,25.70
2022-12-23T05:55:44.131Z,29.40
2022-12-23T06:00:47.337Z,26.10
2022-12-23T06:05:52.210Z,24.10
2022-12-23T06:10:55.459Z,24.80
2022-12-23T06:15:58.580Z,25.10
2022-12-23T06:21:01.686Z,24.30
2022-12-23T06:26:05.073Z,25.30
2022-12-23T06:31:08.203Z,23.90
2022-12-23T06:36:11.359Z,26.60
2022-12-23T06:41:14.580Z,31.50
2022-12-23T06:46:17.965Z,32.30
2022-12-23T06:51:21.831Z,29.10
2022-12-23T06:56:24.992Z,27.40
2022-12-23T07:01:28.236Z,28.60
2022-12-23T07:06:31.677Z,23.40
2022-12-23T07:11:34.974Z,26.00
2022-12-23T07:16:38.168Z,28.20
2022-12-23T07:21:41.379Z,28.60
2022-12-23T07:26:44.704Z,25.30
2022-12-23T07:31:47.835Z,24.30
2022-12-23T07:36:51.104Z,23.60
2022-12-23T07:42:16.522Z,25.20
2022-12-23T07:47:17.526Z,27.10
2022-12-23T07:52:20.842Z,25.50
2022-12-23T07:57:24.521Z,27.40
2022-12-23T08:02:27.912Z,24.50
2022-12-23T08:07:31.454Z,25.90
2022-12-23T08:12:34.698Z,27.40
2022-12-23T08:17:37.790Z,26.60
2022-12-23T08:22:40.984Z,27.20
2022-12-23T08:27:44.049Z,28.80
2022-12-23T08:32:47.364Z,23.50
2022-12-23T08:37:50.550Z,27.00
2022-12-23T08:42:53.608Z,28.40
2022-12-23T08:47:57.030Z,28.40
2022-12-23T08:53:00.163Z,27.30
2022-12-23T08:58:03.377Z,28.10
2022-12-23T09:03:07.534Z,26.70
2022-12-23T09:08:10.843Z,28.20
2022-12-23T09:13:22.306Z,30.60
2022-12-23T09:18:29.588Z,27.90
2022-12-23T09:23:33.450Z,26.90
2022-12-23T09:28:37.290Z,27.50
2022-12-23T09:33:40.568Z,25.60
2022-12-23T09:38:44.618Z,29.90
2022-12-23T09:44:10.364Z,29.10
2022-12-23T09:49:17.690Z,27.40
2022-12-23T09:54:29.594Z,28.10
2022-12-23T09:59:35.893Z,29.10
2022-12-23T10:04:44.880Z,30.90
2022-12-23T10:09:51.846Z,31.00
2022-12-23T10:14:58.773Z,32.20
2022-12-23T10:20:07.225Z,34.00
2022-12-23T10:25:37.502Z,44.80
2022-12-23T10:31:05.903Z,36.00
2022-12-23T10:36:23.780Z,30.70
2022-12-23T10:41:42.197Z,32.50
2022-12-23T10:47:03.698Z,34.90
2022-12-23T10:52:18.360Z,36.40
2022-12-23T10:57:23.603Z,36.10
2022-12-23T11:02:46.010Z,32.20
2022-12-23T11:07:49.450Z,33.00
2022-12-23T11:12:54.494Z,35.60
2022-12-23T11:18:17.478Z,41.30
2022-12-23T11:28:27.357Z,41.50
2022-12-23T11:33:34.426Z,39.20
2022-12-23T11:38:47.502Z,36.70
2022-12-23T11:44:16.125Z,35.40
2022-12-23T11:49:23.941Z,40.40
2022-12-23T11:54:27.629Z,49.00
2022-12-23T11:59:38.633Z,39.40
2022-12-23T12:04:42.858Z,40.70
2022-12-23T12:09:46.094Z,42.00
2022-12-23T12:14:52.584Z,44.20
2022-12-23T12:20:17.595Z,41.50
2022-12-23T12:25:26.323Z,41.90
2022-12-23T12:30:37.649Z,43.00
2022-12-23T12:35:47.629Z,44.40
2022-12-23T12:41:01.559Z,46.60
2022-12-23T12:46:10.546Z,37.50
2022-12-23T12:51:26.299Z,36.70
2022-12-23T12:56:43.920Z,37.10
2022-12-23T13:02:15.283Z,34.00
2022-12-23T13:07:30.458Z,30.30
2022-12-23T13:13:01.232Z,30.90
2022-12-23T13:18:26.364Z,30.10
2022-12-23T13:23:43.680Z,32.60
2022-12-23T13:28:51.503Z,32.10
2022-12-23T13:34:47.369Z,31.20
2022-12-23T13:39:59.939Z,29.40
2022-12-23T13:45:04.934Z,34.50
2022-12-23T13:50:26.954Z,31.80
2022-12-23T13:55:58.340Z,32.80
2022-12-23T14:01:10.530Z,31.50
2022-12-23T14:06:21.759Z,32.70
2022-12-23T14:11:30.024Z,33.80
2022-12-23T14:16:55.793Z,35.40
2022-12-23T14:22:21.080Z,28.20
2022-12-23T14:27:49.814Z,28.30
2022-12-23T14:32:59.732Z,31.20
2022-12-23T14:38:15.304Z,29.40
2022-12-23T14:43:26.736Z,31.70
2022-12-23T14:49:16.209Z,31.10
2022-12-23T14:54:38.752Z,29.60
2022-12-23T15:00:03.032Z,31.30
2022-12-23T15:05:07.129Z,30.70
2022-12-23T15:10:20.640Z,29.70
2022-12-23T15:15:30.221Z,30.40
2022-12-23T15:20:34.330Z,31.30
2022-12-23T15:25:44.721Z,31.20
2022-12-23T15:30:54.749Z,26.70
2022-12-23T15:35:58.260Z,24.90
2022-12-23T15:41:13.739Z,25.00
2022-12-23T15:46:25.126Z,21.60
2022-12-23T15:57:01.786Z,22.50
2022-12-23T16:08:31.169Z,20.30
2022-12-23T16:13:34.361Z,20.10
2022-12-23T16:18:47.203Z,21.20
2022-12-23T16:23:53.384Z,22.10
2022-12-23T16:29:00.934Z,22.50
2022-12-23T16:34:07.737Z,20.50
2022-12-23T16:39:22.831Z,24.80
2022-12-23T16:44:26.076Z,26.90
2022-12-23T16:49:33.940Z,24.10
2022-12-23T16:54:37.448Z,26.70
2022-12-23T16:59:41.341Z,25.90
2022-12-23T17:04:44.937Z,25.00
2022-12-23T17:09:48.108Z,28.30
2022-12-23T17:14:51.669Z,28.10
2022-12-23T17:19:56.537Z,25.10
2022-12-23T17:24:59.684Z,26.20
2022-12-23T17:30:03.245Z,25.90
2022-12-23T17:35:06.661Z,29.00
2022-12-23T17:40:13.316Z,26.30
2022-12-23T17:45:24.867Z,22.70
2022-12-23T17:50:28.300Z,22.50
2022-12-23T17:55:31.546Z,25.10
2022-12-23T18:00:35.357Z,32.90
2022-12-23T18:05:38.491Z,31.10
2022-12-23T18:10:41.713Z,31.10
2022-12-23T18:15:46.049Z,31.90
2022-12-23T18:20:51.813Z,30.30
2022-12-23T18:25:56.848Z,39.10
2022-12-23T18:31:00.197Z,37.90
2022-12-23T18:36:03.666Z,30.70
2022-12-23T18:41:11.668Z,26.80
2022-12-23T18:46:14.902Z,26.80
2022-12-23T18:51:21.210Z,26.40
2022-12-23T18:56:24.385Z,23.60
2022-12-23T19:01:27.605Z,21.30
2022-12-23T19:06:30.780Z,26.30
2022-12-23T19:11:34.439Z,27.10
2022-12-23T19:16:37.616Z,23.70
2022-12-23T19:21:40.798Z,23.80
2022-12-23T19:26:44.133Z,30.20
2022-12-23T19:31:47.349Z,34.00
2022-12-23T19:36:50.513Z,34.30
2022-12-23T19:41:53.775Z,34.90
2022-12-23T19:46:56.924Z,33.40
2022-12-23T19:52:01.550Z,33.90
2022-12-23T19:57:10.309Z,37.10
2022-12-23T20:02:15.641Z,38.90
2022-12-23T20:07:18.963Z,36.00
2022-12-23T20:12:22.225Z,36.00
2022-12-23T20:17:25.463Z,41.10
2022-12-23T20:22:28.589Z,38.10
2022-12-23T20:27:32.506Z,43.60
2022-12-23T20:32:35.692Z,42.90
2022-12-23T20:37:38.812Z,37.90
2022-12-23T20:42:42.003Z,40.30
2022-12-23T20:47:45.319Z,33.20
2022-12-23T20:52:48.585Z,34.30
2022-12-23T20:57:51.768Z,37.30
2022-12-23T21:02:54.947Z,38.40
2022-12-23T21:07:58.288Z,40.00
2022-12-23T21:13:04.470Z,37.80
2022-12-23T21:18:07.747Z,36.80
2022-12-23T21:23:10.955Z,41.70
2022-12-23T21:28:14.115Z,39.00
2022-12-23T21:33:17.268Z,37.70
2022-12-23T21:38:20.429Z,39.30
2022-12-23T21:43:23.760Z,41.30
2022-12-23T21:48:29.977Z,49.40
2022-12-23T21:53:37.189Z,40.50
2022-12-23T21:58:41.472Z,37.20
2022-12-23T22:03:46.310Z,37.30
2022-12-23T22:08:52.099Z,38.50
2022-12-23T22:13:59.629Z,46.80
2022-12-23T22:19:04.503Z,40.10
2022-12-23T22:24:08.306Z,41.90
2022-12-23T22:29:12.168Z,44.80
2022-12-23T22:34:18.556Z,46.10
2022-12-23T22:39:22.183Z,52.20
2022-12-23T22:44:25.597Z,50.80
2022-12-23T22:49:28.907Z,50.30
2022-12-23T22:54:32.156Z,48.90
2022-12-23T22:59:35.484Z,47.90
2022-12-23T23:04:38.733Z,47.50
2022-12-23T23:09:42.011Z,38.90
2022-12-23T23:14:54.420Z,39.90
2022-12-23T23:19:57.693Z,47.50
2022-12-23T23:25:00.805Z,46.20
2022-12-23T23:30:04.496Z,41.60
2022-12-23T23:35:10.874Z,43.10
2022-12-23T23:40:14.557Z,45.90
2022-12-23T23:45:17.766Z,48.00
2022-12-23T23:50:21.166Z,48.00
2022-12-23T23:55:24.289Z,45.40
